Mercur 309 — YP2004 — position and weather

sailwx.info

Track history (hours):
 
Tides and Currents Weather Stations Pressure Air Temp Water Temp Dewpoint Dewpoint Depression Visibility Wind Speed Wind Dir Waves Ship Positions

Mercur 309

Last reported at 2018-Feb-09 11:30 UTC. Time now 2018-Feb-25 17:24 UTC.
Position N 44°06' E 028°36'.
Warning: this ship's position is 16 days out of date.

Length 291 m; draft 3.8 m.

Type: Ship. MMSI: 264162004.

Date/timePositionNaut miles runAvg speedWind from/ knotsBaromVisibWave heightAir tempDewpointWater temp
2018-Feb-09 11:30N 44°06' E 028°36'1 1.7
2018-Feb-09 11:00N 44°06' E 028°37'0 0.9
2018-Feb-09 10:30N 44°06' E 028°38'2 3.4
2018-Feb-09 10:00N 44°08' E 028°39'0 0.1
2018-Feb-09 09:00N 44°08' E 028°39'0 0.0
2018-Feb-09 08:30N 44°08' E 028°39'0 0.0
2018-Feb-09 08:00N 44°08' E 028°39'0 0.0
2018-Feb-09 07:30N 44°08' E 028°39'0 0.0
2018-Feb-09 07:00N 44°08' E 028°39'0 0.0
2018-Feb-09 06:00N 44°08' E 028°39'0 0.0
2018-Feb-09 05:30N 44°08' E 028°39'0 0.0
2018-Feb-09 05:00N 44°08' E 028°39'0 0.4
2018-Feb-09 04:00N 44°08' E 028°39'0 0.0
2018-Feb-09 03:30N 44°08' E 028°39'0 0.0
2018-Feb-09 03:00N 44°08' E 028°39'0 0.0
2018-Feb-09 02:30N 44°08' E 028°39'0 0.0
2018-Feb-09 02:00N 44°08' E 028°39'0 0.0
2018-Feb-09 01:30N 44°08' E 028°39'0 0.0
2018-Feb-09 01:00N 44°08' E 028°39'0 0.0
2018-Feb-09 00:30N 44°08' E 028°39'0 0.0
2018-Feb-09 00:00N 44°08' E 028°39'0 0.0
2018-Feb-08 23:30N 44°08' E 028°39'0 0.0
2018-Feb-08 23:00N 44°08' E 028°39'0 0.0
2018-Feb-08 22:00N 44°08' E 028°39'0 0.0
2018-Feb-08 21:30N 44°08' E 028°39'0 0.0
2018-Feb-08 21:00N 44°08' E 028°39'0 0.0
2018-Feb-08 20:30N 44°08' E 028°39'0 0.0
2018-Feb-08 20:00N 44°08' E 028°39'0 0.0
2018-Feb-08 19:30N 44°08' E 028°39'0 0.0
2018-Feb-08 19:00N 44°08' E 028°39'0 0.0
2018-Feb-08 18:30N 44°08' E 028°39'0 0.0
2018-Feb-08 18:00N 44°08' E 028°39'0 0.0
2018-Feb-08 17:30N 44°08' E 028°39'0 0.0
2018-Feb-08 17:00N 44°08' E 028°39'0 0.0
2018-Feb-08 16:30N 44°08' E 028°39'0 0.0
2018-Feb-08 16:00N 44°08' E 028°39'0 0.0
2018-Feb-08 15:30N 44°08' E 028°39'0 0.0
2018-Feb-08 15:00N 44°08' E 028°39'0 0.0
2018-Feb-08 14:00N 44°08' E 028°39'0 0.0
2018-Feb-08 13:30N 44°08' E 028°39'0 0.0
2018-Feb-08 13:00N 44°08' E 028°39'1 2.7
2018-Feb-08 12:30N 44°07' E 028°39'0 0.0
2018-Feb-08 12:00N 44°07' E 028°39'0 0.0
2018-Feb-08 11:30N 44°07' E 028°39'1 1.1
2018-Feb-08 10:30N 44°08' E 028°39'0 0.5
2018-Feb-08 10:00N 44°08' E 028°39'0 0.0
2018-Feb-08 09:30N 44°08' E 028°39'0 0.0
2018-Feb-08 09:00N 44°08' E 028°39'0 0.0
2018-Feb-08 07:30N 44°08' E 028°39'0 0.0
2018-Feb-08 07:00N 44°08' E 028°39'0 0.0
2018-Feb-08 06:30N 44°08' E 028°39'0 0.0
2018-Feb-08 06:00N 44°08' E 028°39'0 0.0
2018-Feb-08 05:30N 44°08' E 028°39'0 0.0
2018-Feb-08 05:00N 44°08' E 028°39'0 0.0
2018-Feb-08 04:30N 44°08' E 028°39'0 0.0
2018-Feb-08 04:00N 44°08' E 028°39'0 0.0
2018-Feb-08 03:30N 44°08' E 028°39'0 0.0
2018-Feb-08 03:00N 44°08' E 028°39'0 0.0
2018-Feb-08 02:30N 44°08' E 028°39'0 0.0
2018-Feb-08 01:30N 44°08' E 028°39'0 0.0
2018-Feb-08 01:00N 44°08' E 028°39'0 0.0
2018-Feb-08 00:30N 44°08' E 028°39'0 0.0
2018-Feb-08 00:00N 44°08' E 028°39'0 0.0
2018-Feb-07 23:30N 44°08' E 028°39'0 0.0
2018-Feb-07 23:00N 44°08' E 028°39'0 0.0
2018-Feb-07 22:30N 44°08' E 028°39'0 0.0
2018-Feb-07 22:00N 44°08' E 028°39'0 0.0
2018-Feb-07 21:31N 44°08' E 028°39'2 0.2
2018-Feb-07 09:30N 44°06' E 028°37'1 2.5
2018-Feb-07 09:00N 44°06' E 028°35'9 4.2
2018-Feb-07 06:58N 44°10' E 028°25'2 4.8
2018-Feb-07 06:30N 44°12' E 028°23'2 4.9
2018-Feb-07 06:00N 44°14' E 028°22'2 4.4
2018-Feb-07 05:30N 44°15' E 028°19'3 5.0
2018-Feb-07 04:53N 44°15' E 028°15'2 4.9
2018-Feb-07 04:28N 44°16' E 028°12'5 4.9
2018-Feb-07 03:29N 44°17' E 028°05'  
2018-Feb-01 13:31N 44°35' E 022°02'22 5.8
2018-Feb-01 09:40N 44°46' E 021°34'1 7.0
2018-Feb-01 09:31N 44°46' E 021°33'2 3.2
2018-Feb-01 09:00N 44°46' E 021°31'0 0.1
2018-Feb-01 04:49N 44°46' E 021°31'0 0.9
2018-Feb-01 04:30N 44°46' E 021°31'23 5.7
2018-Feb-01 00:25N 44°42' E 020°58'3 0.9
2018-Jan-31 21:00N 44°40' E 020°55'0 0.4
2018-Jan-31 20:27N 44°40' E 020°56'0 0.2
2018-Jan-31 20:00N 44°40' E 020°55'0 0.7
2018-Jan-31 19:30N 44°40' E 020°55'0 0.1
2018-Jan-31 19:00N 44°40' E 020°55'0 0.5
2018-Jan-31 18:30N 44°40' E 020°55'3 5.8
2018-Jan-31 18:00N 44°40' E 020°51'4 7.3
2018-Jan-31 17:30N 44°40' E 020°46'3 6.8
2018-Jan-31 17:00N 44°42' E 020°42'3 6.7
2018-Jan-31 16:30N 44°44' E 020°40'3 6.2
2018-Jan-31 16:00N 44°47' E 020°38'3 6.6
2018-Jan-31 15:30N 44°50' E 020°38'3 6.0
2018-Jan-31 15:00N 44°51' E 020°34'2 4.5
2018-Jan-31 14:30N 44°50' E 020°31'0 0.0
2018-Jan-31 13:00N 44°50' E 020°31'0 0.2
2018-Jan-31 12:30N 44°50' E 020°32'0 0.9
2018-Jan-31 12:00N 44°50' E 020°31'2 3.4
2018-Jan-31 11:30N 44°50' E 020°29'0 0.1
2018-Jan-31 11:00N 44°50' E 020°29'0 0.1
2018-Jan-31 10:30N 44°50' E 020°29'0 0.2
2018-Jan-31 10:00N 44°50' E 020°29'0 0.5
2018-Jan-31 09:30N 44°50' E 020°29'0 0.0
2018-Jan-31 09:00N 44°50' E 020°29'0 0.0
2018-Jan-31 08:30N 44°50' E 020°29'0 0.4
2018-Jan-31 08:00N 44°50' E 020°29'2 3.7
2018-Jan-31 07:30N 44°50' E 020°31'0 0.5
2018-Jan-31 07:00N 44°50' E 020°31'2 4.0
2018-Jan-31 06:30N 44°50' E 020°29'3 6.9
2018-Jan-31 06:00N 44°51' E 020°24'3 6.7
2018-Jan-31 05:30N 44°54' E 020°21'4 7.0
2018-Jan-31 05:00N 44°56' E 020°18'3 6.4
2018-Jan-31 04:30N 44°60' E 020°18'3 6.3
2018-Jan-31 03:59N 45°02' E 020°22'4 7.2
2018-Jan-31 03:22N 45°06' E 020°18'3 7.2
2018-Jan-31 02:56N 45°08' E 020°16'3 7.4
2018-Jan-31 02:30N 45°10' E 020°13'3 6.6
2018-Jan-31 02:00N 45°10' E 020°08'4 7.4
2018-Jan-31 01:30N 45°10' E 020°03'4 7.3
2018-Jan-31 01:00N 45°11' E 019°58'5 3.7
2018-Jan-30 23:41N 45°15' E 019°54'0 0.0
2018-Jan-30 23:30N 45°15' E 019°54'0 0.0
2018-Jan-30 22:55N 45°15' E 019°54'0 0.0
2018-Jan-30 22:14N 45°15' E 019°54'0 0.0
2018-Jan-30 21:25N 45°15' E 019°54'0 0.0
2018-Jan-30 21:00N 45°15' E 019°54'0 0.0
2018-Jan-30 20:30N 45°15' E 019°54'0 0.0
2018-Jan-30 20:00N 45°15' E 019°54'0 0.0
2018-Jan-30 19:25N 45°15' E 019°54'0 0.0
2018-Jan-30 18:46N 45°15' E 019°54'0 0.1
2018-Jan-30 18:29N 45°15' E 019°54'1 2.3
2018-Jan-30 17:58N 45°16' E 019°52'3 7.4
2018-Jan-30 17:30N 45°13' E 019°49'0 0.3
2018-Jan-30 16:58N 45°13' E 019°49'3 3.7
2018-Jan-30 16:04N 45°16' E 019°52'0 2.4
2018-Jan-30 16:00N 45°16' E 019°52'0 0.2
2018-Jan-30 15:15N 45°16' E 019°52'3 4.8
2018-Jan-30 14:34N 45°13' E 019°49'0 0.0
2018-Jan-30 14:29N 45°13' E 019°49'4 3.9
2018-Jan-30 13:31N 45°16' E 019°53'0 0.8
2018-Jan-30 12:57N 45°15' E 019°54'0 0.3
2018-Jan-30 12:30N 45°15' E 019°54'3 5.6
2018-Jan-30 11:54N 45°13' E 019°50'  
Track history (hours):
 
Tides and Currents Weather Stations Pressure Air Temp Water Temp Dewpoint Dewpoint Depression Visibility Wind Speed Wind Dir Waves Ship Positions

Mercur 309

Last reported at 2018-Feb-09 11:30 UTC. Time now 2018-Feb-25 17:24 UTC.
Position N 44°06' E 028°36'.
Warning: this ship's position is 16 days out of date.

Length 291 m; draft 3.8 m.

Type: Ship. MMSI: 264162004.

Date/timePositionNaut miles runAvg speedWind from/ knotsBaromVisibWave heightAir tempDewpointWater temp
2018-Feb-09 11:30N 44°06' E 028°36'1 1.7
2018-Feb-09 11:00N 44°06' E 028°37'0 0.9
2018-Feb-09 10:30N 44°06' E 028°38'2 3.4
2018-Feb-09 10:00N 44°08' E 028°39'0 0.1
2018-Feb-09 09:00N 44°08' E 028°39'0 0.0
2018-Feb-09 08:30N 44°08' E 028°39'0 0.0
2018-Feb-09 08:00N 44°08' E 028°39'0 0.0
2018-Feb-09 07:30N 44°08' E 028°39'0 0.0
2018-Feb-09 07:00N 44°08' E 028°39'0 0.0
2018-Feb-09 06:00N 44°08' E 028°39'0 0.0
2018-Feb-09 05:30N 44°08' E 028°39'0 0.0
2018-Feb-09 05:00N 44°08' E 028°39'0 0.4
2018-Feb-09 04:00N 44°08' E 028°39'0 0.0
2018-Feb-09 03:30N 44°08' E 028°39'0 0.0
2018-Feb-09 03:00N 44°08' E 028°39'0 0.0
2018-Feb-09 02:30N 44°08' E 028°39'0 0.0
2018-Feb-09 02:00N 44°08' E 028°39'0 0.0
2018-Feb-09 01:30N 44°08' E 028°39'0 0.0
2018-Feb-09 01:00N 44°08' E 028°39'0 0.0
2018-Feb-09 00:30N 44°08' E 028°39'0 0.0
2018-Feb-09 00:00N 44°08' E 028°39'0 0.0
2018-Feb-08 23:30N 44°08' E 028°39'0 0.0
2018-Feb-08 23:00N 44°08' E 028°39'0 0.0
2018-Feb-08 22:00N 44°08' E 028°39'0 0.0
2018-Feb-08 21:30N 44°08' E 028°39'0 0.0
2018-Feb-08 21:00N 44°08' E 028°39'0 0.0
2018-Feb-08 20:30N 44°08' E 028°39'0 0.0
2018-Feb-08 20:00N 44°08' E 028°39'0 0.0
2018-Feb-08 19:30N 44°08' E 028°39'0 0.0
2018-Feb-08 19:00N 44°08' E 028°39'0 0.0
2018-Feb-08 18:30N 44°08' E 028°39'0 0.0
2018-Feb-08 18:00N 44°08' E 028°39'0 0.0
2018-Feb-08 17:30N 44°08' E 028°39'0 0.0
2018-Feb-08 17:00N 44°08' E 028°39'0 0.0
2018-Feb-08 16:30N 44°08' E 028°39'0 0.0
2018-Feb-08 16:00N 44°08' E 028°39'0 0.0
2018-Feb-08 15:30N 44°08' E 028°39'0 0.0
2018-Feb-08 15:00N 44°08' E 028°39'0 0.0
2018-Feb-08 14:00N 44°08' E 028°39'0 0.0
2018-Feb-08 13:30N 44°08' E 028°39'0 0.0
2018-Feb-08 13:00N 44°08' E 028°39'1 2.7
2018-Feb-08 12:30N 44°07' E 028°39'0 0.0
2018-Feb-08 12:00N 44°07' E 028°39'0 0.0
2018-Feb-08 11:30N 44°07' E 028°39'1 1.1
2018-Feb-08 10:30N 44°08' E 028°39'0 0.5
2018-Feb-08 10:00N 44°08' E 028°39'0 0.0
2018-Feb-08 09:30N 44°08' E 028°39'0 0.0
2018-Feb-08 09:00N 44°08' E 028°39'0 0.0
2018-Feb-08 07:30N 44°08' E 028°39'0 0.0
2018-Feb-08 07:00N 44°08' E 028°39'0 0.0
2018-Feb-08 06:30N 44°08' E 028°39'0 0.0
2018-Feb-08 06:00N 44°08' E 028°39'0 0.0
2018-Feb-08 05:30N 44°08' E 028°39'0 0.0
2018-Feb-08 05:00N 44°08' E 028°39'0 0.0
2018-Feb-08 04:30N 44°08' E 028°39'0 0.0
2018-Feb-08 04:00N 44°08' E 028°39'0 0.0
2018-Feb-08 03:30N 44°08' E 028°39'0 0.0
2018-Feb-08 03:00N 44°08' E 028°39'0 0.0
2018-Feb-08 02:30N 44°08' E 028°39'0 0.0
2018-Feb-08 01:30N 44°08' E 028°39'0 0.0
2018-Feb-08 01:00N 44°08' E 028°39'0 0.0
2018-Feb-08 00:30N 44°08' E 028°39'0 0.0
2018-Feb-08 00:00N 44°08' E 028°39'0 0.0
2018-Feb-07 23:30N 44°08' E 028°39'0 0.0
2018-Feb-07 23:00N 44°08' E 028°39'0 0.0
2018-Feb-07 22:30N 44°08' E 028°39'0 0.0
2018-Feb-07 22:00N 44°08' E 028°39'0 0.0
2018-Feb-07 21:31N 44°08' E 028°39'2 0.2
2018-Feb-07 09:30N 44°06' E 028°37'1 2.5
2018-Feb-07 09:00N 44°06' E 028°35'9 4.2
2018-Feb-07 06:58N 44°10' E 028°25'2 4.8
2018-Feb-07 06:30N 44°12' E 028°23'2 4.9
2018-Feb-07 06:00N 44°14' E 028°22'2 4.4
2018-Feb-07 05:30N 44°15' E 028°19'3 5.0
2018-Feb-07 04:53N 44°15' E 028°15'2 4.9
2018-Feb-07 04:28N 44°16' E 028°12'5 4.9
2018-Feb-07 03:29N 44°17' E 028°05'  
2018-Feb-01 13:31N 44°35' E 022°02'22 5.8
2018-Feb-01 09:40N 44°46' E 021°34'1 7.0
2018-Feb-01 09:31N 44°46' E 021°33'2 3.2
2018-Feb-01 09:00N 44°46' E 021°31'0 0.1
2018-Feb-01 04:49N 44°46' E 021°31'0 0.9
2018-Feb-01 04:30N 44°46' E 021°31'23 5.7
2018-Feb-01 00:25N 44°42' E 020°58'3 0.9
2018-Jan-31 21:00N 44°40' E 020°55'0 0.4
2018-Jan-31 20:27N 44°40' E 020°56'0 0.2
2018-Jan-31 20:00N 44°40' E 020°55'0 0.7
2018-Jan-31 19:30N 44°40' E 020°55'0 0.1
2018-Jan-31 19:00N 44°40' E 020°55'0 0.5
2018-Jan-31 18:30N 44°40' E 020°55'3 5.8
2018-Jan-31 18:00N 44°40' E 020°51'4 7.3
2018-Jan-31 17:30N 44°40' E 020°46'3 6.8
2018-Jan-31 17:00N 44°42' E 020°42'3 6.7
2018-Jan-31 16:30N 44°44' E 020°40'3 6.2
2018-Jan-31 16:00N 44°47' E 020°38'3 6.6
2018-Jan-31 15:30N 44°50' E 020°38'3 6.0
2018-Jan-31 15:00N 44°51' E 020°34'2 4.5
2018-Jan-31 14:30N 44°50' E 020°31'0 0.0
2018-Jan-31 13:00N 44°50' E 020°31'0 0.2
2018-Jan-31 12:30N 44°50' E 020°32'0 0.9
2018-Jan-31 12:00N 44°50' E 020°31'2 3.4
2018-Jan-31 11:30N 44°50' E 020°29'0 0.1
2018-Jan-31 11:00N 44°50' E 020°29'0 0.1
2018-Jan-31 10:30N 44°50' E 020°29'0 0.2
2018-Jan-31 10:00N 44°50' E 020°29'0 0.5
2018-Jan-31 09:30N 44°50' E 020°29'0 0.0
2018-Jan-31 09:00N 44°50' E 020°29'0 0.0
2018-Jan-31 08:30N 44°50' E 020°29'0 0.4
2018-Jan-31 08:00N 44°50' E 020°29'2 3.7
2018-Jan-31 07:30N 44°50' E 020°31'0 0.5
2018-Jan-31 07:00N 44°50' E 020°31'2 4.0
2018-Jan-31 06:30N 44°50' E 020°29'3 6.9
2018-Jan-31 06:00N 44°51' E 020°24'3 6.7
2018-Jan-31 05:30N 44°54' E 020°21'4 7.0
2018-Jan-31 05:00N 44°56' E 020°18'3 6.4
2018-Jan-31 04:30N 44°60' E 020°18'3 6.3
2018-Jan-31 03:59N 45°02' E 020°22'4 7.2
2018-Jan-31 03:22N 45°06' E 020°18'3 7.2
2018-Jan-31 02:56N 45°08' E 020°16'3 7.4
2018-Jan-31 02:30N 45°10' E 020°13'3 6.6
2018-Jan-31 02:00N 45°10' E 020°08'4 7.4
2018-Jan-31 01:30N 45°10' E 020°03'4 7.3
2018-Jan-31 01:00N 45°11' E 019°58'5 3.7
2018-Jan-30 23:41N 45°15' E 019°54'0 0.0
2018-Jan-30 23:30N 45°15' E 019°54'0 0.0
2018-Jan-30 22:55N 45°15' E 019°54'0 0.0
2018-Jan-30 22:14N 45°15' E 019°54'0 0.0
2018-Jan-30 21:25N 45°15' E 019°54'0 0.0
2018-Jan-30 21:00N 45°15' E 019°54'0 0.0
2018-Jan-30 20:30N 45°15' E 019°54'0 0.0
2018-Jan-30 20:00N 45°15' E 019°54'0 0.0
2018-Jan-30 19:25N 45°15' E 019°54'0 0.0
2018-Jan-30 18:46N 45°15' E 019°54'0 0.1
2018-Jan-30 18:29N 45°15' E 019°54'1 2.3
2018-Jan-30 17:58N 45°16' E 019°52'3 7.4
2018-Jan-30 17:30N 45°13' E 019°49'0 0.3
2018-Jan-30 16:58N 45°13' E 019°49'3 3.7
2018-Jan-30 16:04N 45°16' E 019°52'0 2.4
2018-Jan-30 16:00N 45°16' E 019°52'0 0.2
2018-Jan-30 15:15N 45°16' E 019°52'3 4.8
2018-Jan-30 14:34N 45°13' E 019°49'0 0.0
2018-Jan-30 14:29N 45°13' E 019°49'4 3.9
2018-Jan-30 13:31N 45°16' E 019°53'0 0.8
2018-Jan-30 12:57N 45°15' E 019°54'0 0.3
2018-Jan-30 12:30N 45°15' E 019°54'3 5.6
2018-Jan-30 11:54N 45°13' E 019°50'  

Dump ship's entire track history